Girolata — FPOD — position and weather

sailwx.info

Track history (hours):
 
Tides and Currents Weather Stations Pressure Air Temp Water Temp Dewpoint Dewpoint Depression Visibility Wind Speed Wind Dir Waves Ship Positions

Girolata

Last reported at 2019-Sep-29 23:11 UTC. Time now 2019-Oct-18 23:20 UTC.
Position N 42°32' E 006°54'.
Warning: this ship's position is 19 days out of date.

Length 177 m; beam 27 m.

Type: Ship. MMSI: 226245000.

Date/timePositionNaut miles runAvg speedWind from/ knotsBaromVisibWave heightAir tempDewpointWater temp
2019-Sep-29 23:11N 42°32' E 006°54'317.4
2019-Sep-29 23:00N 42°31' E 006°58'917.0
2019-Sep-29 22:30N 42°25' E 007°07'1316.3
2019-Sep-29 21:43N 42°19' E 007°22'11 0.5
2019-Sep-29 00:09N 42°24' E 007°09'215.1
2019-Sep-29 00:00N 42°25' E 007°06'4415.4
2019-Sep-28 21:10N 42°47' E 006°14'315.4
2019-Sep-28 20:58N 42°48' E 006°11'715.3
2019-Sep-28 20:31N 42°52' E 006°02'815.5
2019-Sep-28 20:01N 42°56' E 005°53'815.5
2019-Sep-28 19:31N 42°59' E 005°44'1015.0
2019-Sep-28 18:49N 43°04' E 005°31'613.2
2019-Sep-28 18:22N 43°07' E 005°24'84 4.3
2019-Sep-27 22:54N 42°27' E 007°04'717.2
2019-Sep-27 22:31N 42°24' E 007°12'816.8
2019-Sep-27 22:01N 42°20' E 007°23'816.9
2019-Sep-27 21:31N 42°16' E 007°33'816.6
2019-Sep-27 21:00N 42°12' E 007°43'916.6
2019-Sep-27 20:29N 42°07' E 007°52'816.6
2019-Sep-27 19:59N 42°03' E 008°01'916.6
2019-Sep-27 19:28N 41°58' E 008°11'816.5
2019-Sep-27 19:00N 41°54' E 008°20'1016.2
2019-Sep-27 18:24N 41°50' E 008°32'1113.8
2019-Sep-27 17:36N 41°55' E 008°45'1 0.4
2019-Sep-27 15:06N 41°56' E 008°45'0 0.0
2019-Sep-27 13:57N 41°56' E 008°45'0 0.0
2019-Sep-27 13:12N 41°56' E 008°45'0 0.0
2019-Sep-27 13:00N 41°56' E 008°45'64 5.0
2019-Sep-27 00:05N 42°18' E 007°23'65 2.2
2019-Sep-25 18:04N 41°55' E 008°45'412.7
2019-Sep-25 17:45N 41°52' E 008°42'816.2
2019-Sep-25 17:16N 41°49' E 008°32'416.4
2019-Sep-25 17:00N 41°51' E 008°27'817.0
2019-Sep-25 16:30N 41°55' E 008°17'917.0
2019-Sep-25 16:00N 41°60' E 008°07'1319.3
2019-Sep-25 15:21N 42°06' E 007°52'1119.5
2019-Sep-25 14:48N 42°11' E 007°40'819.2
2019-Sep-25 14:24N 42°15' E 007°31'818.9
2019-Sep-25 14:00N 42°19' E 007°22'14 0.3
2019-Sep-23 20:43N 42°12' E 007°38'52 6.9
2019-Sep-23 13:09N 41°56' E 008°45'0 0.0
2019-Sep-23 12:51N 41°56' E 008°45'0 0.0
2019-Sep-23 12:27N 41°56' E 008°45'0 0.0
2019-Sep-23 11:39N 41°56' E 008°45'0 0.0
2019-Sep-23 11:27N 41°56' E 008°45'34 0.9
2019-Sep-21 19:43N 42°03' E 007°60'414.3
2019-Sep-21 19:28N 42°01' E 008°04'914.4
2019-Sep-21 18:50N 41°57' E 008°15'  
Track history (hours):
 
Tides and Currents Weather Stations Pressure Air Temp Water Temp Dewpoint Dewpoint Depression Visibility Wind Speed Wind Dir Waves Ship Positions

Girolata

Last reported at 2019-Sep-29 23:11 UTC. Time now 2019-Oct-18 23:20 UTC.
Position N 42°32' E 006°54'.
Warning: this ship's position is 19 days out of date.

Length 177 m; beam 27 m.

Type: Ship. MMSI: 226245000.

Date/timePositionNaut miles runAvg speedWind from/ knotsBaromVisibWave heightAir tempDewpointWater temp
2019-Sep-29 23:11N 42°32' E 006°54'317.4
2019-Sep-29 23:00N 42°31' E 006°58'917.0
2019-Sep-29 22:30N 42°25' E 007°07'1316.3
2019-Sep-29 21:43N 42°19' E 007°22'11 0.5
2019-Sep-29 00:09N 42°24' E 007°09'215.1
2019-Sep-29 00:00N 42°25' E 007°06'4415.4
2019-Sep-28 21:10N 42°47' E 006°14'315.4
2019-Sep-28 20:58N 42°48' E 006°11'715.3
2019-Sep-28 20:31N 42°52' E 006°02'815.5
2019-Sep-28 20:01N 42°56' E 005°53'815.5
2019-Sep-28 19:31N 42°59' E 005°44'1015.0
2019-Sep-28 18:49N 43°04' E 005°31'613.2
2019-Sep-28 18:22N 43°07' E 005°24'84 4.3
2019-Sep-27 22:54N 42°27' E 007°04'717.2
2019-Sep-27 22:31N 42°24' E 007°12'816.8
2019-Sep-27 22:01N 42°20' E 007°23'816.9
2019-Sep-27 21:31N 42°16' E 007°33'816.6
2019-Sep-27 21:00N 42°12' E 007°43'916.6
2019-Sep-27 20:29N 42°07' E 007°52'816.6
2019-Sep-27 19:59N 42°03' E 008°01'916.6
2019-Sep-27 19:28N 41°58' E 008°11'816.5
2019-Sep-27 19:00N 41°54' E 008°20'1016.2
2019-Sep-27 18:24N 41°50' E 008°32'1113.8
2019-Sep-27 17:36N 41°55' E 008°45'1 0.4
2019-Sep-27 15:06N 41°56' E 008°45'0 0.0
2019-Sep-27 13:57N 41°56' E 008°45'0 0.0
2019-Sep-27 13:12N 41°56' E 008°45'0 0.0
2019-Sep-27 13:00N 41°56' E 008°45'64 5.0
2019-Sep-27 00:05N 42°18' E 007°23'65 2.2
2019-Sep-25 18:04N 41°55' E 008°45'412.7
2019-Sep-25 17:45N 41°52' E 008°42'816.2
2019-Sep-25 17:16N 41°49' E 008°32'416.4
2019-Sep-25 17:00N 41°51' E 008°27'817.0
2019-Sep-25 16:30N 41°55' E 008°17'917.0
2019-Sep-25 16:00N 41°60' E 008°07'1319.3
2019-Sep-25 15:21N 42°06' E 007°52'1119.5
2019-Sep-25 14:48N 42°11' E 007°40'819.2
2019-Sep-25 14:24N 42°15' E 007°31'818.9
2019-Sep-25 14:00N 42°19' E 007°22'14 0.3
2019-Sep-23 20:43N 42°12' E 007°38'52 6.9
2019-Sep-23 13:09N 41°56' E 008°45'0 0.0
2019-Sep-23 12:51N 41°56' E 008°45'0 0.0
2019-Sep-23 12:27N 41°56' E 008°45'0 0.0
2019-Sep-23 11:39N 41°56' E 008°45'0 0.0
2019-Sep-23 11:27N 41°56' E 008°45'34 0.9
2019-Sep-21 19:43N 42°03' E 007°60'414.3
2019-Sep-21 19:28N 42°01' E 008°04'914.4
2019-Sep-21 18:50N 41°57' E 008°15'  

Dump ship's entire track history